createdAt,value
2022-10-15T00:02:21.737Z,15.05
2022-10-15T00:05:09.513Z,15.30
2022-10-15T00:07:57.193Z,14.52
2022-10-15T00:10:28.580Z,15.30
2022-10-15T00:12:58.729Z,15.40
2022-10-15T00:15:28.201Z,14.75
2022-10-15T00:17:58.981Z,15.18
2022-10-15T00:20:31.614Z,15.55
2022-10-15T00:23:13.724Z,16.30
2022-10-15T00:26:03.728Z,15.35
2022-10-15T00:31:26.379Z,14.55
2022-10-15T00:33:55.684Z,15.30
2022-10-15T00:36:28.307Z,13.68
2022-10-15T00:38:57.081Z,14.88
2022-10-15T00:41:33.550Z,15.55
2022-10-15T00:44:22.377Z,14.63
2022-10-15T00:47:28.698Z,15.90
2022-10-15T00:50:01.399Z,14.75
2022-10-15T00:52:40.876Z,15.30
2022-10-15T00:55:12.508Z,13.57
2022-10-15T00:57:48.424Z,13.45
2022-10-15T01:00:19.393Z,13.45
2022-10-15T01:03:01.352Z,14.23
2022-10-15T01:05:31.686Z,17.48
2022-10-15T01:08:00.724Z,14.45
2022-10-15T01:10:36.369Z,15.55
2022-10-15T01:13:14.005Z,13.25
2022-10-15T01:15:49.531Z,14.38
2022-10-15T01:18:37.225Z,14.88
2022-10-15T01:21:11.188Z,14.05
2022-10-15T01:23:42.223Z,14.25
2022-10-15T01:26:13.018Z,15.25
2022-10-15T01:28:46.591Z,13.15
2022-10-15T01:31:26.738Z,14.43
2022-10-15T01:34:07.841Z,16.15
2022-10-15T01:36:45.157Z,13.88
2022-10-15T01:39:13.171Z,14.10
2022-10-15T01:41:45.411Z,15.02
2022-10-15T01:44:20.701Z,15.25
2022-10-15T01:47:25.935Z,15.10
2022-10-15T01:50:00.441Z,14.98
2022-10-15T01:52:39.300Z,14.95
2022-10-15T01:55:09.859Z,14.52
2022-10-15T01:57:47.173Z,16.38
2022-10-15T02:00:17.049Z,16.77
2022-10-15T02:03:05.421Z,17.27
2022-10-15T02:05:40.851Z,17.63
2022-10-15T02:08:09.161Z,17.52
2022-10-15T02:13:25.926Z,20.00
2022-10-15T02:15:54.242Z,19.75
2022-10-15T02:18:35.428Z,20.70
2022-10-15T02:21:09.501Z,19.58
2022-10-15T02:26:07.240Z,19.25
2022-10-15T02:28:37.852Z,19.35
2022-10-15T02:31:08.008Z,19.92
2022-10-15T02:33:45.845Z,18.55
2022-10-15T02:36:15.932Z,19.10
2022-10-15T02:38:46.105Z,18.98
2022-10-15T02:41:17.086Z,19.67
2022-10-15T02:43:46.082Z,20.40
2022-10-15T02:46:15.937Z,19.52
2022-10-15T02:49:03.014Z,19.67
2022-10-15T02:51:38.439Z,19.30
2022-10-15T02:54:09.885Z,19.00
2022-10-15T02:56:39.860Z,19.73
2022-10-15T02:59:09.254Z,21.25
2022-10-15T03:01:38.535Z,20.05
2022-10-15T03:04:07.562Z,21.83
2022-10-15T03:06:38.083Z,19.70
2022-10-15T03:09:07.083Z,19.95
2022-10-15T03:11:36.295Z,19.15
2022-10-15T03:14:05.242Z,21.63
2022-10-15T03:16:35.403Z,20.45
2022-10-15T03:19:04.613Z,21.45
2022-10-15T03:21:33.605Z,21.00
2022-10-15T03:24:12.012Z,22.98
2022-10-15T03:26:41.183Z,21.27
2022-10-15T03:29:11.434Z,23.35
2022-10-15T03:31:46.119Z,23.67
2022-10-15T03:34:15.376Z,21.95
2022-10-15T03:36:44.507Z,23.75
2022-10-15T03:39:15.399Z,22.33
2022-10-15T03:44:25.552Z,21.92
2022-10-15T03:47:07.960Z,22.38
2022-10-15T03:49:53.777Z,23.30
2022-10-15T03:52:23.190Z,21.67
2022-10-15T03:54:55.077Z,22.55
2022-10-15T03:57:23.377Z,21.40
2022-10-15T04:00:02.372Z,24.63
2022-10-15T04:02:46.720Z,24.40
2022-10-15T04:05:28.287Z,26.48
2022-10-15T04:08:10.528Z,26.08
2022-10-15T04:10:42.080Z,26.98
2022-10-15T04:13:14.112Z,24.90
2022-10-15T04:15:45.273Z,26.25
2022-10-15T04:18:20.563Z,26.52
2022-10-15T04:23:27.816Z,25.48
2022-10-15T04:26:17.016Z,29.02
2022-10-15T04:28:45.666Z,28.90
2022-10-15T04:31:15.517Z,29.40
2022-10-15T04:33:49.092Z,28.67
2022-10-15T04:36:19.306Z,28.08
2022-10-15T04:38:53.925Z,28.95
2022-10-15T04:44:21.274Z,24.63
2022-10-15T04:46:57.496Z,24.38
2022-10-15T04:49:35.010Z,25.17
2022-10-15T04:52:10.306Z,24.15
2022-10-15T04:54:46.003Z,22.85
2022-10-15T04:57:18.411Z,22.58
2022-10-15T04:59:47.592Z,24.45
2022-10-15T05:02:47.309Z,24.88
2022-10-15T05:05:31.828Z,25.92
2022-10-15T05:08:04.690Z,24.13
2022-10-15T05:10:42.728Z,25.02
2022-10-15T05:13:14.800Z,24.80
2022-10-15T05:15:44.177Z,21.13
2022-10-15T05:18:21.112Z,24.23
2022-10-15T05:21:01.918Z,23.50
2022-10-15T05:23:32.419Z,22.38
2022-10-15T05:26:15.799Z,21.35
2022-10-15T05:28:44.383Z,20.90
2022-10-15T05:31:22.706Z,22.10
2022-10-15T05:33:59.290Z,23.75
2022-10-15T05:36:38.386Z,22.30
2022-10-15T05:39:10.430Z,22.02
2022-10-15T05:41:46.982Z,22.83
2022-10-15T05:44:16.685Z,22.10
2022-10-15T05:46:44.853Z,21.95
2022-10-15T05:49:20.135Z,21.77
2022-10-15T05:51:56.471Z,22.33
2022-10-15T05:54:42.153Z,23.15
2022-10-15T05:57:11.464Z,23.30
2022-10-15T05:59:49.479Z,21.25
2022-10-15T06:02:18.310Z,22.00
2022-10-15T06:04:52.300Z,22.80
2022-10-15T06:09:54.780Z,21.13
2022-10-15T06:12:25.906Z,22.98
2022-10-15T06:14:55.961Z,22.27
2022-10-15T06:17:26.083Z,21.80
2022-10-15T06:19:54.474Z,20.77
2022-10-15T06:22:22.946Z,21.02
2022-10-15T06:24:51.219Z,23.77
2022-10-15T06:27:19.705Z,23.08
2022-10-15T06:29:49.551Z,23.48
2022-10-15T06:32:18.891Z,22.60
2022-10-15T06:34:49.340Z,22.08
2022-10-15T06:37:18.008Z,23.92
2022-10-15T06:39:46.821Z,23.15
2022-10-15T06:42:15.292Z,23.85
2022-10-15T06:44:56.509Z,22.85
2022-10-15T06:47:25.806Z,23.42
2022-10-15T06:49:55.494Z,25.73
2022-10-15T06:52:25.967Z,24.33
2022-10-15T06:54:56.393Z,24.23
2022-10-15T06:57:26.349Z,23.30
2022-10-15T06:59:55.532Z,24.17
2022-10-15T07:02:25.043Z,24.90
2022-10-15T07:04:54.913Z,23.95
2022-10-15T07:07:24.630Z,25.40
2022-10-15T07:09:55.178Z,24.65
2022-10-15T07:12:24.824Z,24.60
2022-10-15T07:14:54.439Z,25.92
2022-10-15T07:17:23.465Z,26.30
2022-10-15T07:19:54.252Z,26.25
2022-10-15T07:22:31.851Z,26.52
2022-10-15T07:25:03.641Z,25.75
2022-10-15T07:27:39.645Z,26.63
2022-10-15T07:30:09.507Z,27.20
2022-10-15T07:32:57.919Z,26.10
2022-10-15T07:35:28.380Z,25.77
2022-10-15T07:37:56.696Z,25.30
2022-10-15T07:40:25.257Z,26.77
2022-10-15T07:43:05.416Z,25.30
2022-10-15T07:45:36.007Z,25.52
2022-10-15T07:48:06.173Z,27.30
2022-10-15T07:50:40.460Z,26.33
2022-10-15T07:53:13.741Z,27.55
2022-10-15T07:55:46.505Z,26.83
2022-10-15T07:58:15.181Z,25.05
2022-10-15T08:00:46.630Z,27.20
2022-10-15T08:03:24.712Z,24.40
2022-10-15T08:05:55.777Z,27.40
2022-10-15T08:08:32.174Z,26.23
2022-10-15T08:11:05.312Z,27.02
2022-10-15T08:13:34.946Z,23.80
2022-10-15T08:16:04.067Z,23.65
2022-10-15T08:18:34.868Z,22.65
2022-10-15T08:21:04.905Z,23.65
2022-10-15T08:23:33.888Z,21.73
2022-10-15T08:26:02.729Z,20.80
2022-10-15T08:28:36.735Z,21.08
2022-10-15T08:31:07.706Z,19.42
2022-10-15T08:33:47.727Z,19.50
2022-10-15T08:36:15.964Z,16.35
2022-10-15T08:39:03.100Z,15.57
2022-10-15T08:41:36.700Z,16.25
2022-10-15T08:44:06.167Z,14.32
2022-10-15T08:46:43.160Z,13.98
2022-10-15T08:49:26.624Z,12.23
2022-10-15T08:51:57.826Z,18.30
2022-10-15T08:54:35.440Z,11.55
2022-10-15T08:57:35.167Z,10.02
2022-10-15T09:00:13.104Z,8.23
2022-10-15T09:03:10.275Z,9.45
2022-10-15T09:05:44.392Z,7.90
2022-10-15T09:08:27.173Z,7.45
2022-10-15T09:11:03.638Z,7.15
2022-10-15T09:16:10.904Z,5.90
2022-10-15T09:18:42.520Z,4.70
2022-10-15T09:21:14.132Z,5.05
2022-10-15T09:23:50.619Z,4.00
2022-10-15T09:26:45.623Z,3.13
2022-10-15T09:29:28.079Z,3.10
2022-10-15T09:32:01.152Z,3.03
2022-10-15T09:34:32.292Z,2.10
2022-10-15T09:37:03.656Z,1.83
2022-10-15T09:39:51.490Z,1.33
2022-10-15T09:42:27.910Z,1.50
2022-10-15T09:44:58.620Z,1.40
2022-10-15T09:47:31.031Z,1.10
2022-10-15T09:50:02.522Z,1.00
2022-10-15T09:52:52.136Z,3.22
2022-10-15T09:55:27.498Z,1.02
2022-10-15T09:57:57.497Z,0.80
2022-10-15T10:00:25.618Z,0.60
2022-10-15T10:03:07.127Z,0.50
2022-10-15T10:05:39.982Z,0.73
2022-10-15T10:08:23.454Z,0.82
2022-10-15T10:10:56.410Z,0.85
2022-10-15T10:13:28.913Z,0.70
2022-10-15T10:16:03.039Z,0.63
2022-10-15T10:18:33.233Z,0.65
2022-10-15T10:21:02.841Z,0.77
2022-10-15T10:23:35.891Z,0.90
2022-10-15T10:28:44.689Z,1.52
2022-10-15T10:31:13.725Z,0.93
2022-10-15T10:33:44.865Z,1.08
2022-10-15T10:36:21.256Z,0.82
2022-10-15T10:38:57.208Z,0.93
2022-10-15T10:41:46.914Z,1.20
2022-10-15T10:44:27.750Z,0.70
2022-10-15T10:47:03.353Z,1.20
2022-10-15T10:49:35.414Z,1.13
2022-10-15T10:52:04.300Z,1.17
2022-10-15T10:57:14.661Z,1.40
2022-10-15T10:59:59.656Z,1.40
2022-10-15T11:02:41.460Z,1.42
2022-10-15T11:05:19.448Z,1.40
2022-10-15T11:08:00.523Z,1.33
2022-10-15T11:10:53.968Z,1.48
2022-10-15T11:13:31.458Z,1.30
2022-10-15T11:16:18.353Z,1.20
2022-10-15T11:18:54.694Z,1.10
2022-10-15T11:21:39.559Z,1.15
2022-10-15T11:24:07.587Z,0.95
2022-10-15T11:27:10.408Z,0.98
2022-10-15T11:29:44.904Z,3.85
2022-10-15T11:32:25.304Z,1.50
2022-10-15T11:35:20.205Z,1.45
2022-10-15T11:38:06.851Z,1.45
2022-10-15T11:40:44.651Z,1.15
2022-10-15T11:43:18.503Z,1.60
2022-10-15T11:45:55.643Z,1.38
2022-10-15T11:48:39.002Z,1.60
2022-10-15T11:51:10.106Z,1.63
2022-10-15T11:53:39.832Z,1.80
2022-10-15T11:56:17.384Z,1.75
2022-10-15T11:58:51.389Z,1.58
2022-10-15T12:01:30.737Z,1.88
2022-10-15T12:04:06.459Z,1.25
2022-10-15T12:06:38.464Z,1.70
2022-10-15T12:09:10.849Z,1.70
2022-10-15T12:11:40.076Z,1.38
2022-10-15T12:14:14.271Z,1.40
2022-10-15T12:16:55.214Z,1.10
2022-10-15T12:19:41.350Z,1.70
2022-10-15T12:22:11.990Z,2.22
2022-10-15T12:24:47.759Z,1.63
2022-10-15T12:27:30.920Z,1.17
2022-10-15T12:30:05.531Z,1.20
2022-10-15T12:32:49.399Z,1.10
2022-10-15T12:35:24.043Z,1.03
2022-10-15T12:37:54.897Z,1.08
2022-10-15T12:40:28.050Z,1.15
2022-10-15T12:43:00.174Z,1.38
2022-10-15T12:45:40.315Z,3.03
2022-10-15T12:48:09.605Z,6.35
2022-10-15T12:50:38.016Z,1.15
2022-10-15T12:53:25.491Z,1.10
2022-10-15T12:56:11.931Z,1.42
2022-10-15T12:58:46.890Z,1.23
2022-10-15T13:01:17.875Z,0.90
2022-10-15T13:03:52.327Z,1.00
2022-10-15T13:06:23.445Z,1.33
2022-10-15T13:09:10.356Z,0.82
2022-10-15T13:14:41.199Z,0.88
2022-10-15T13:17:22.105Z,1.17
2022-10-15T13:19:59.079Z,0.93
2022-10-15T13:22:29.941Z,0.85
2022-10-15T13:25:01.410Z,0.80
2022-10-15T13:27:30.590Z,1.00
2022-10-15T13:29:59.373Z,1.13
2022-10-15T13:32:29.904Z,0.70
2022-10-15T13:34:59.616Z,0.77
2022-10-15T13:37:34.053Z,0.63
2022-10-15T13:40:08.002Z,0.75
2022-10-15T13:43:21.136Z,0.60
2022-10-15T13:45:57.593Z,0.50
2022-10-15T13:48:28.066Z,0.60
2022-10-15T13:51:11.460Z,0.50
2022-10-15T13:53:53.893Z,0.50
2022-10-15T13:56:39.539Z,0.40
2022-10-15T13:59:26.809Z,0.40
2022-10-15T14:02:02.211Z,0.45
2022-10-15T14:04:37.586Z,0.30
2022-10-15T14:07:24.919Z,0.55
2022-10-15T14:09:54.606Z,0.35
2022-10-15T14:12:23.596Z,0.47
2022-10-15T14:14:52.465Z,0.47
2022-10-15T14:17:24.077Z,0.40
2022-10-15T14:20:26.805Z,0.68
2022-10-15T14:22:49.995Z,0.60
2022-10-15T14:25:23.375Z,0.50
2022-10-15T14:27:53.624Z,0.45
2022-10-15T14:30:25.397Z,0.35
2022-10-15T14:33:31.965Z,0.60
2022-10-15T14:36:24.129Z,0.40
2022-10-15T14:38:53.640Z,0.90
2022-10-15T14:41:27.150Z,0.80
2022-10-15T14:44:06.930Z,0.57
2022-10-15T14:46:51.556Z,0.50
2022-10-15T14:49:28.556Z,0.40
2022-10-15T14:52:11.459Z,0.60
2022-10-15T14:54:52.177Z,0.68
2022-10-15T14:57:28.282Z,0.77
2022-10-15T15:00:04.664Z,1.00
2022-10-15T15:02:58.095Z,0.95
2022-10-15T15:05:30.781Z,0.88
2022-10-15T15:08:04.323Z,0.98
2022-10-15T15:10:39.973Z,0.80
2022-10-15T15:13:31.030Z,0.70
2022-10-15T15:16:00.662Z,1.05
2022-10-15T15:18:35.751Z,0.93
2022-10-15T15:21:08.702Z,0.98
2022-10-15T15:23:46.101Z,0.88
2022-10-15T15:26:25.212Z,0.75
2022-10-15T15:29:13.755Z,1.05
2022-10-15T15:32:00.187Z,6.53
2022-10-15T15:34:48.155Z,13.95
2022-10-15T15:37:31.428Z,1.60
2022-10-15T15:40:12.645Z,1.33
2022-10-15T15:42:59.933Z,2.25
2022-10-15T15:45:42.159Z,2.30
2022-10-15T15:48:11.437Z,1.70
2022-10-15T15:51:00.757Z,3.33
2022-10-15T15:53:41.568Z,5.03
2022-10-15T15:56:15.126Z,1.92
2022-10-15T15:58:46.719Z,1.75
2022-10-15T16:01:18.755Z,1.80
2022-10-15T16:03:49.866Z,1.98
2022-10-15T16:06:22.586Z,1.75
2022-10-15T16:08:52.854Z,1.73
2022-10-15T16:14:18.679Z,1.98
2022-10-15T16:16:48.728Z,2.42
2022-10-15T16:19:19.472Z,2.20
2022-10-15T16:22:01.628Z,2.85
2022-10-15T16:24:39.228Z,2.80
2022-10-15T16:27:10.688Z,2.88
2022-10-15T16:29:41.015Z,2.83
2022-10-15T16:32:12.255Z,3.25
2022-10-15T16:34:42.551Z,2.88
2022-10-15T16:37:13.493Z,3.00
2022-10-15T16:39:46.114Z,3.00
2022-10-15T16:42:19.099Z,3.05
2022-10-15T16:44:49.357Z,2.63
2022-10-15T16:47:18.416Z,9.25
2022-10-15T16:50:15.591Z,4.22
2022-10-15T16:52:59.051Z,3.22
2022-10-15T16:55:32.464Z,3.20
2022-10-15T16:58:04.323Z,3.10
2022-10-15T17:00:35.155Z,3.05
2022-10-15T17:07:36.718Z,3.65
2022-10-15T17:10:07.446Z,4.05
2022-10-15T17:12:43.650Z,5.63
2022-10-15T17:15:13.164Z,4.10
2022-10-15T17:17:47.017Z,3.03
2022-10-15T17:20:18.651Z,35.50
2022-10-15T17:22:59.791Z,9.40
2022-10-15T17:25:36.331Z,4.72
2022-10-15T17:28:14.889Z,3.83
2022-10-15T17:30:52.207Z,4.28
2022-10-15T17:33:21.957Z,4.43
2022-10-15T17:35:50.881Z,3.88
2022-10-15T17:38:21.898Z,3.83
2022-10-15T17:40:51.174Z,4.30
2022-10-15T17:43:21.614Z,4.15
2022-10-15T17:46:03.018Z,4.32
2022-10-15T17:48:40.183Z,4.25
2022-10-15T17:51:18.006Z,4.32
2022-10-15T17:53:53.459Z,5.15
2022-10-15T17:56:23.934Z,5.30
2022-10-15T17:58:56.796Z,14.90
2022-10-15T18:01:39.386Z,5.10
2022-10-15T18:04:15.261Z,4.80
2022-10-15T18:06:45.739Z,4.18
2022-10-15T18:09:40.127Z,4.85
2022-10-15T18:12:08.671Z,4.78
2022-10-15T18:14:38.542Z,4.80
2022-10-15T18:17:15.248Z,4.93
2022-10-15T18:19:43.939Z,4.43
2022-10-15T18:22:12.816Z,4.72
2022-10-15T18:24:41.516Z,3.92
2022-10-15T18:27:21.114Z,4.43
2022-10-15T18:30:09.110Z,4.00
2022-10-15T18:32:58.230Z,3.95
2022-10-15T18:35:46.320Z,3.33
2022-10-15T18:38:34.290Z,3.72
2022-10-15T18:41:18.525Z,3.25
2022-10-15T18:44:01.601Z,3.10
2022-10-15T18:46:49.337Z,2.92
2022-10-15T18:49:22.492Z,3.63
2022-10-15T18:52:15.758Z,2.63
2022-10-15T18:55:04.171Z,2.97
2022-10-15T18:57:51.896Z,2.83
2022-10-15T19:00:21.538Z,3.10
2022-10-15T19:03:07.766Z,2.70
2022-10-15T19:05:52.478Z,3.40
2022-10-15T19:08:39.692Z,9.68
2022-10-15T19:11:16.479Z,7.35
2022-10-15T19:16:33.437Z,3.50
2022-10-15T19:19:25.558Z,3.00
2022-10-15T19:22:09.218Z,2.95
2022-10-15T19:24:56.809Z,2.65
2022-10-15T19:27:42.737Z,2.88
2022-10-15T19:30:21.374Z,2.95
2022-10-15T19:33:01.476Z,3.05
2022-10-15T19:35:48.883Z,2.75
2022-10-15T19:38:25.977Z,2.72
2022-10-15T19:41:04.915Z,2.75
2022-10-15T19:43:50.760Z,2.35
2022-10-15T19:46:36.840Z,2.58
2022-10-15T19:49:16.441Z,2.50
2022-10-15T19:51:57.340Z,2.80
2022-10-15T19:54:26.197Z,2.88
2022-10-15T19:56:54.496Z,3.00
2022-10-15T20:01:56.897Z,3.03
2022-10-15T20:04:25.571Z,2.80
2022-10-15T20:06:54.227Z,3.90
2022-10-15T20:09:23.297Z,2.40
2022-10-15T20:11:51.877Z,3.25
2022-10-15T20:14:21.081Z,3.20
2022-10-15T20:16:49.924Z,3.72
2022-10-15T20:19:23.071Z,4.50
2022-10-15T20:22:04.966Z,5.50
2022-10-15T20:24:42.465Z,5.65
2022-10-15T20:27:16.756Z,6.45
2022-10-15T20:29:45.392Z,4.63
2022-10-15T20:32:30.326Z,5.22
2022-10-15T20:35:03.586Z,5.05
2022-10-15T20:37:36.777Z,4.40
2022-10-15T20:40:06.003Z,4.35
2022-10-15T20:42:43.560Z,4.60
2022-10-15T20:45:14.727Z,3.92
2022-10-15T20:47:56.524Z,4.07
2022-10-15T20:50:27.560Z,4.55
2022-10-15T20:53:04.302Z,4.47
2022-10-15T20:55:35.709Z,4.05
2022-10-15T20:58:06.170Z,4.90
2022-10-15T21:00:47.403Z,5.68
2022-10-15T21:03:35.774Z,4.07
2022-10-15T21:06:11.639Z,4.05
2022-10-15T21:08:44.516Z,4.60
2022-10-15T21:11:14.599Z,4.28
2022-10-15T21:13:43.457Z,4.88
2022-10-15T21:16:15.076Z,5.07
2022-10-15T21:18:46.448Z,4.60
2022-10-15T21:21:15.705Z,4.75
2022-10-15T21:23:47.437Z,5.35
2022-10-15T21:26:18.457Z,6.00
2022-10-15T21:28:47.259Z,5.50
2022-10-15T21:31:17.085Z,3.97
2022-10-15T21:33:47.963Z,4.72
2022-10-15T21:36:29.025Z,4.78
2022-10-15T21:39:03.603Z,4.93
2022-10-15T21:41:34.822Z,5.80
2022-10-15T21:44:04.940Z,4.70
2022-10-15T21:46:36.777Z,4.55
2022-10-15T21:49:13.930Z,5.00
2022-10-15T21:51:49.059Z,5.70
2022-10-15T21:54:23.796Z,5.00
2022-10-15T21:56:59.869Z,6.07
2022-10-15T21:59:31.042Z,5.25
2022-10-15T22:02:01.388Z,5.30
2022-10-15T22:04:36.589Z,5.30
2022-10-15T22:07:09.108Z,5.60
2022-10-15T22:09:41.424Z,5.80
2022-10-15T22:12:10.039Z,6.18
2022-10-15T22:14:39.716Z,5.50
2022-10-15T22:17:08.405Z,5.57
2022-10-15T22:19:38.589Z,4.18
2022-10-15T22:22:08.047Z,5.43
2022-10-15T22:24:42.188Z,5.05
2022-10-15T22:27:10.897Z,5.65
2022-10-15T22:29:42.118Z,5.20
2022-10-15T22:32:12.414Z,4.70
2022-10-15T22:34:41.365Z,4.43
2022-10-15T22:37:11.647Z,4.88
2022-10-15T22:39:40.524Z,4.18
2022-10-15T22:42:09.745Z,4.57
2022-10-15T22:44:49.509Z,4.63
2022-10-15T22:47:22.313Z,4.35
2022-10-15T22:49:55.177Z,4.50
2022-10-15T22:52:32.601Z,4.38
2022-10-15T22:55:01.145Z,4.18
2022-10-15T22:57:31.663Z,4.65
2022-10-15T22:59:59.955Z,4.32
2022-10-15T23:02:30.858Z,4.75
2022-10-15T23:04:59.886Z,4.65
2022-10-15T23:07:29.182Z,4.03
2022-10-15T23:09:58.393Z,4.07
2022-10-15T23:12:29.947Z,4.15
2022-10-15T23:15:07.595Z,4.22
2022-10-15T23:17:53.988Z,4.05
2022-10-15T23:20:24.522Z,4.30
2022-10-15T23:23:01.320Z,3.83
2022-10-15T23:25:31.908Z,4.22
2022-10-15T23:28:00.549Z,4.43
2022-10-15T23:30:32.810Z,3.88
2022-10-15T23:33:13.374Z,3.70
2022-10-15T23:35:41.695Z,3.63
2022-10-15T23:38:16.713Z,3.97
2022-10-15T23:40:53.226Z,4.10
2022-10-15T23:43:28.401Z,3.60
2022-10-15T23:46:04.289Z,3.75
2022-10-15T23:48:37.345Z,4.20
2022-10-15T23:51:21.803Z,3.08
2022-10-15T23:54:00.749Z,3.13
2022-10-15T23:56:40.806Z,3.45
2022-10-15T23:59:18.736Z,4.35
